Time;durP1;ratioP1;P1;durP2;ratioP2;P2;SDS_P1;SDS_P2;PMS_P1;PMS_P2;Temp;Humidity;BMP_temperature;BMP_pressure;BME280_temperature;BME280_humidity;BME280_pressure;Samples;Min_cycle;Max_cycle;Signal;HPM_P1;HPM_P2
2022/11/02 00:01:42;;;;;;;5.47;2.13;;;13.00;1.00;;;;;;4919372;29;20194;-44
2022/11/02 00:04:08;;;;;;;12.40;2.40;;;13.00;1.00;;;;;;4927055;29;20832;-46
2022/11/02 00:06:34;;;;;;;9.93;2.70;;;13.00;1.00;;;;;;4929836;29;20446;-45
2022/11/02 00:08:59;;;;;;;10.43;2.63;;;13.00;1.00;;;;;;4929067;29;20509;-45
2022/11/02 00:11:25;;;;;;;11.07;2.70;;;13.00;1.00;;;;;;4930390;29;20860;-45
2022/11/02 00:13:52;;;;;;;6.90;2.20;;;13.00;1.00;;;;;;4931691;29;20205;-45
2022/11/02 00:16:19;;;;;;;8.10;2.07;;;13.00;1.00;;;;;;4929958;29;20448;-44
2022/11/02 00:18:48;;;;;;;8.03;2.20;;;13.00;1.00;;;;;;4927977;29;20448;-45
2022/11/02 00:21:16;;;;;;;16.33;2.83;;;13.00;1.00;;;;;;4929787;29;20473;-45
2022/11/02 00:23:43;;;;;;;14.47;2.13;;;13.00;1.00;;;;;;4929754;29;20449;-46
2022/11/02 00:26:08;;;;;;;5.60;2.20;;;12.90;1.00;;;;;;4929896;28;20434;-44
2022/11/02 00:28:34;;;;;;;12.53;2.87;;;12.90;1.00;;;;;;4931639;29;20615;-45
2022/11/02 00:31:00;;;;;;;8.37;2.70;;;12.80;1.00;;;;;;4931842;29;20236;-44
2022/11/02 00:33:26;;;;;;;8.67;2.83;;;12.80;1.00;;;;;;4928045;29;20442;-45
2022/11/02 00:35:53;;;;;;;17.73;2.50;;;12.70;1.00;;;;;;4929176;29;20214;-45
2022/11/02 00:38:18;;;;;;;6.37;1.97;;;12.80;1.00;;;;;;4927429;29;20645;-45
2022/11/02 00:40:44;;;;;;;9.67;2.40;;;12.80;1.00;;;;;;4929135;29;20442;-45
2022/11/02 00:43:10;;;;;;;6.60;1.77;;;12.90;1.00;;;;;;4927932;29;20198;-43
2022/11/02 00:45:35;;;;;;;9.00;2.50;;;12.90;1.00;;;;;;4928700;29;20257;-45
2022/11/02 00:48:01;;;;;;;9.90;2.10;;;12.80;1.00;;;;;;4927001;29;20267;-45
2022/11/02 00:50:26;;;;;;;8.40;2.63;;;12.80;1.00;;;;;;4929777;29;20195;-45
2022/11/02 00:52:52;;;;;;;7.60;2.00;;;12.80;1.00;;;;;;4927187;29;20229;-46
2022/11/02 00:55:18;;;;;;;6.50;2.90;;;12.80;1.00;;;;;;4927654;29;20214;-43
2022/11/02 00:57:43;;;;;;;8.27;2.10;;;12.80;1.00;;;;;;4930014;29;20259;-43
2022/11/02 01:00:10;;;;;;;9.83;1.93;;;12.90;1.00;;;;;;4928444;29;20273;-43
2022/11/02 01:02:37;;;;;;;7.13;2.67;;;12.90;1.00;;;;;;4926266;29;20233;-44
2022/11/02 01:05:04;;;;;;;12.30;2.97;;;12.80;1.00;;;;;;4926380;29;20449;-45
2022/11/02 01:07:30;;;;;;;9.03;2.97;;;12.80;1.00;;;;;;4927116;29;20449;-45
2022/11/02 01:09:55;;;;;;;4.90;2.17;;;12.80;1.00;;;;;;4928937;29;20441;-44
2022/11/02 01:12:21;;;;;;;7.10;2.50;;;12.80;1.00;;;;;;4930432;29;20209;-45
2022/11/02 01:14:48;;;;;;;9.00;2.60;;;12.80;1.00;;;;;;4931595;29;20273;-45
2022/11/02 01:17:14;;;;;;;10.53;2.13;;;12.80;1.00;;;;;;4924703;29;20259;-45
2022/11/02 01:19:40;;;;;;;6.80;2.60;;;12.80;1.00;;;;;;4930251;29;20441;-45
2022/11/02 01:22:05;;;;;;;15.83;3.27;;;12.70;1.00;;;;;;4922679;29;20447;-46
2022/11/02 01:24:31;;;;;;;9.80;2.57;;;12.70;1.00;;;;;;4918635;29;20202;-45
2022/11/02 01:26:57;;;;;;;12.70;2.90;;;12.80;1.00;;;;;;4917135;29;20720;-44
2022/11/02 01:29:22;;;;;;;9.50;2.47;;;12.80;1.00;;;;;;4920059;29;20233;-45
2022/11/02 01:31:48;;;;;;;13.27;2.67;;;12.80;1.00;;;;;;4919118;29;20202;-46
2022/11/02 01:34:14;;;;;;;15.27;2.73;;;12.80;1.00;;;;;;4916640;29;20242;-45
2022/11/02 01:36:40;;;;;;;8.60;2.40;;;12.70;1.00;;;;;;4920106;29;20192;-46
2022/11/02 01:39:06;;;;;;;10.07;3.53;;;12.60;1.00;;;;;;4918081;29;20434;-46
2022/11/02 01:41:32;;;;;;;12.57;3.07;;;12.60;1.00;;;;;;4919622;29;20191;-45
2022/11/02 01:44:00;;;;;;;17.37;2.97;;;12.50;1.00;;;;;;4916980;29;20537;-46
2022/11/02 01:46:38;;;;;;;11.80;2.47;;;12.50;1.00;;;;;;4921591;29;20194;-45
2022/11/02 01:49:18;;;;;;;11.93;3.03;;;12.60;1.00;;;;;;4915217;29;20883;-45
2022/11/02 01:51:57;;;;;;;8.43;2.70;;;12.60;1.00;;;;;;4915377;29;21088;-45
2022/11/02 01:54:28;;;;;;;7.97;2.37;;;12.60;1.00;;;;;;4915037;29;20505;-44
2022/11/02 01:57:00;;;;;;;12.53;2.57;;;12.60;1.00;;;;;;4917497;29;20435;-45
2022/11/02 01:59:31;;;;;;;8.30;2.60;;;12.70;1.00;;;;;;4920953;29;20510;-45
2022/11/02 02:01:56;;;;;;;9.80;2.17;;;12.60;1.00;;;;;;4917046;29;21259;-45
2022/11/02 02:04:22;;;;;;;12.40;2.53;;;12.70;1.00;;;;;;4918375;29;20457;-45
2022/11/02 02:06:49;;;;;;;9.10;2.37;;;12.70;1.00;;;;;;4919410;29;20186;-45
2022/11/02 02:09:16;;;;;;;12.53;2.87;;;12.70;1.00;;;;;;4926092;29;20868;-44
2022/11/02 02:11:42;;;;;;;13.40;2.90;;;12.70;1.00;;;;;;4927726;29;20450;-45
2022/11/02 02:14:14;;;;;;;13.20;2.50;;;12.70;1.00;;;;;;4927707;29;20465;-45
2022/11/02 02:16:58;;;;;;;15.80;2.70;;;12.60;1.00;;;;;;4926106;29;20550;-45
2022/11/02 02:19:42;;;;;;;16.37;3.03;;;12.60;1.00;;;;;;4921953;29;20430;-45
2022/11/02 02:22:56;;;;;;;11.27;2.10;;;12.60;1.00;;;;;;4926305;29;20442;-45
2022/11/02 02:25:44;;;;;;;10.43;2.60;;;12.60;1.00;;;;;;4926836;29;20456;-45
2022/11/02 02:28:42;;;;;;;12.73;2.50;;;12.70;1.00;;;;;;4927915;29;20461;-45
2022/11/02 02:31:07;;;;;;;10.97;2.23;;;12.70;1.00;;;;;;4925043;29;20467;-45
2022/11/02 02:34:00;;;;;;;9.57;2.27;;;12.70;1.00;;;;;;4929789;29;20944;-45
2022/11/02 02:36:34;;;;;;;9.53;2.90;;;12.70;1.00;;;;;;4928564;29;20222;-45
2022/11/02 02:39:19;;;;;;;8.80;2.10;;;12.70;1.00;;;;;;4931711;29;20425;-45
2022/11/02 02:41:56;;;;;;;10.50;2.43;;;12.70;1.00;;;;;;4932328;29;20445;-45
2022/11/02 02:44:25;;;;;;;9.77;2.20;;;12.70;1.00;;;;;;4931821;29;20441;-46
2022/11/02 02:47:01;;;;;;;9.03;2.50;;;12.70;1.00;;;;;;4929898;29;20453;-45
2022/11/02 02:49:42;;;;;;;13.80;2.77;;;12.70;1.00;;;;;;4926683;29;20532;-45
2022/11/02 02:52:09;;;;;;;8.53;2.20;;;12.60;1.00;;;;;;4929873;29;20509;-46
2022/11/02 02:54:39;;;;;;;10.03;2.10;;;12.60;1.00;;;;;;4929815;29;20494;-46
2022/11/02 02:57:12;;;;;;;10.07;2.50;;;12.70;1.00;;;;;;4928289;29;20438;-46
2022/11/02 02:59:42;;;;;;;10.20;2.10;;;12.70;1.00;;;;;;4928152;29;20438;-45
2022/11/02 03:02:42;;;;;;;7.40;2.30;;;12.70;1.00;;;;;;4928218;29;20452;-45
2022/11/02 03:05:24;;;;;;;10.00;2.73;;;12.70;1.00;;;;;;4932181;28;20540;-45
2022/11/02 03:07:51;;;;;;;6.87;2.40;;;12.60;1.00;;;;;;4927978;29;20437;-46
2022/11/02 03:10:20;;;;;;;8.20;2.40;;;12.60;1.00;;;;;;4932120;29;20450;-46
2022/11/02 03:13:09;;;;;;;14.07;2.27;;;12.60;1.00;;;;;;4927817;29;20521;-46
2022/11/02 03:15:41;;;;;;;7.00;2.63;;;12.60;1.00;;;;;;4926140;29;20473;-45
2022/11/02 03:18:37;;;;;;;10.70;2.60;;;12.60;1.00;;;;;;4930982;29;20468;-46
2022/11/02 03:21:02;;;;;;;10.93;2.50;;;12.60;1.00;;;;;;4929180;29;20434;-46
2022/11/02 03:23:36;;;;;;;12.90;2.53;;;12.70;1.00;;;;;;4929218;29;21278;-45
2022/11/02 03:26:07;;;;;;;13.20;2.30;;;12.70;1.00;;;;;;4928696;29;20190;-46
2022/11/02 03:29:04;;;;;;;6.20;2.00;;;12.70;1.00;;;;;;4928849;29;20453;-46
2022/11/02 03:31:47;;;;;;;10.33;2.47;;;12.60;1.00;;;;;;4929284;29;20448;-46
2022/11/02 03:34:23;;;;;;;6.50;2.03;;;12.60;1.00;;;;;;4922352;29;20465;-45
2022/11/02 03:36:57;;;;;;;6.33;2.40;;;12.60;1.00;;;;;;4929974;29;20525;-46
2022/11/02 03:39:48;;;;;;;8.80;2.70;;;12.70;1.00;;;;;;4930334;28;20438;-45
2022/11/02 03:42:19;;;;;;;16.50;3.40;;;12.70;1.00;;;;;;4927498;29;20477;-44
2022/11/02 03:44:48;;;;;;;11.23;2.80;;;12.70;1.00;;;;;;4926432;29;20445;-46
2022/11/02 03:47:16;;;;;;;10.43;2.23;;;12.80;1.00;;;;;;4929859;29;20470;-45
2022/11/02 03:49:44;;;;;;;7.97;2.20;;;12.70;1.00;;;;;;4929752;29;20450;-45
2022/11/02 03:52:15;;;;;;;13.63;2.60;;;12.80;1.00;;;;;;4928193;29;20443;-45
2022/11/02 03:55:08;;;;;;;10.20;2.13;;;12.70;1.00;;;;;;4926250;29;20900;-44
2022/11/02 03:57:39;;;;;;;11.10;2.43;;;12.80;1.00;;;;;;4930785;29;20442;-45
2022/11/02 04:00:12;;;;;;;13.87;3.13;;;12.70;1.00;;;;;;4925209;29;20925;-45
2022/11/02 04:02:40;;;;;;;13.83;2.83;;;12.70;1.00;;;;;;4926782;29;20944;-45
2022/11/02 04:05:06;;;;;;;11.30;2.83;;;12.80;1.00;;;;;;4927095;29;20446;-45
2022/11/02 04:08:19;;;;;;;7.70;2.70;;;12.80;1.00;;;;;;4928383;29;20442;-45
2022/11/02 04:10:20;;;;;;;10.07;2.47;;;12.80;1.00;;;;;;4928712;29;20442;-45
2022/11/02 04:15:31;;;;;;;11.33;2.43;;;12.80;1.00;;;;;;4927279;29;20218;-45
2022/11/02 04:20:40;;;;;;;9.40;2.27;;;12.70;1.00;;;;;;4930975;29;20197;-45
2022/11/02 04:25:54;;;;;;;7.30;2.17;;;12.70;1.00;;;;;;4930047;29;20257;-46
2022/11/02 04:28:20;;;;;;;8.83;2.50;;;12.60;1.00;;;;;;4929490;29;20457;-45
2022/11/02 04:30:46;;;;;;;15.93;2.30;;;12.60;1.00;;;;;;4928452;29;20442;-45
2022/11/02 04:35:59;;;;;;;8.70;2.50;;;12.50;1.00;;;;;;4927563;29;20257;-46
2022/11/02 04:38:40;;;;;;;7.10;2.40;;;12.60;1.00;;;;;;4927682;29;20498;-45
2022/11/02 04:43:58;;;;;;;9.40;2.47;;;12.60;1.00;;;;;;4928106;29;20537;-45
2022/11/02 04:46:25;;;;;;;7.57;2.33;;;12.60;1.00;;;;;;4928326;29;20481;-46
2022/11/02 04:48:51;;;;;;;11.40;2.20;;;12.60;1.00;;;;;;4925572;29;20478;-45
2022/11/02 04:51:27;;;;;;;9.60;2.33;;;12.60;1.00;;;;;;4929625;29;20437;-45
2022/11/02 04:53:54;;;;;;;11.40;2.13;;;12.50;1.00;;;;;;4929304;29;20190;-46
2022/11/02 04:56:20;;;;;;;6.73;2.10;;;12.50;1.00;;;;;;4927356;29;20477;-48
2022/11/02 04:58:50;;;;;;;9.10;2.20;;;12.50;1.00;;;;;;4924688;29;20550;-45
2022/11/02 05:01:17;;;;;;;13.20;3.00;;;12.50;1.00;;;;;;4928019;29;20442;-46
2022/11/02 05:03:45;;;;;;;4.90;2.00;;;12.50;1.00;;;;;;4930423;29;20434;-46
2022/11/02 05:06:10;;;;;;;13.20;2.80;;;12.50;1.00;;;;;;4924843;29;20474;-44
2022/11/02 05:08:36;;;;;;;9.93;2.30;;;12.40;1.00;;;;;;4926674;29;20480;-47
2022/11/02 05:11:02;;;;;;;11.73;3.70;;;12.40;1.00;;;;;;4928314;29;20198;-46
2022/11/02 05:13:28;;;;;;;11.63;3.10;;;12.40;1.00;;;;;;4928381;29;20955;-46
2022/11/02 05:15:58;;;;;;;11.20;2.23;;;12.30;1.00;;;;;;4930009;29;20214;-45
2022/11/02 05:18:23;;;;;;;5.70;2.20;;;12.20;1.00;;;;;;4928568;29;20194;-46
2022/11/02 05:20:55;;;;;;;8.93;2.53;;;12.20;1.00;;;;;;4927368;29;20501;-46
2022/11/02 05:23:21;;;;;;;11.87;2.57;;;12.10;1.00;;;;;;4928806;29;20434;-45
2022/11/02 05:25:56;;;;;;;10.63;2.60;;;12.30;1.00;;;;;;4926076;29;20442;-45
2022/11/02 05:28:23;;;;;;;13.00;2.93;;;12.30;1.00;;;;;;4924150;29;20433;-46
2022/11/02 05:30:49;;;;;;;16.10;3.67;;;12.40;1.00;;;;;;4925866;29;20442;-46
2022/11/02 05:33:16;;;;;;;10.27;2.70;;;12.30;1.00;;;;;;4925613;29;20442;-46
2022/11/02 05:35:42;;;;;;;13.93;2.63;;;12.30;1.00;;;;;;4924290;29;20985;-47
2022/11/02 05:38:08;;;;;;;9.50;3.13;;;12.30;1.00;;;;;;4928075;29;20437;-46
2022/11/02 05:40:36;;;;;;;9.40;3.17;;;12.30;1.00;;;;;;4927395;29;20453;-45
2022/11/02 05:43:03;;;;;;;6.83;2.30;;;12.20;1.00;;;;;;4924561;29;20456;-45
2022/11/02 05:45:28;;;;;;;10.23;2.50;;;12.20;1.00;;;;;;4927739;29;20830;-45
2022/11/02 05:47:54;;;;;;;10.83;3.03;;;12.20;1.00;;;;;;4926393;29;20489;-45
2022/11/02 05:50:21;;;;;;;10.00;2.70;;;12.20;1.00;;;;;;4926206;29;20242;-45
2022/11/02 05:52:47;;;;;;;6.77;2.37;;;12.10;1.00;;;;;;4925103;29;20521;-45
2022/11/02 05:55:13;;;;;;;12.97;2.90;;;12.10;1.00;;;;;;4928039;29;20217;-45
2022/11/02 05:57:38;;;;;;;10.30;2.70;;;12.20;1.00;;;;;;4926606;29;20198;-46
2022/11/02 06:00:05;;;;;;;18.80;2.47;;;12.20;1.00;;;;;;4925525;29;20353;-45
2022/11/02 06:02:33;;;;;;;12.20;2.53;;;12.30;1.00;;;;;;4926004;29;20597;-44
2022/11/02 06:04:58;;;;;;;14.93;3.13;;;12.40;1.00;;;;;;4931533;29;20453;-45
2022/11/02 06:07:24;;;;;;;10.30;2.60;;;12.40;1.00;;;;;;4928080;29;20784;-45
2022/11/02 06:09:50;;;;;;;21.70;3.20;;;12.30;1.00;;;;;;4929612;29;20190;-46
2022/11/02 06:12:16;;;;;;;8.73;2.43;;;12.50;1.00;;;;;;4928413;29;20198;-46
2022/11/02 06:14:41;;;;;;;7.50;2.50;;;12.50;1.00;;;;;;4933386;29;20286;-45
2022/11/02 06:17:07;;;;;;;11.70;2.77;;;12.50;1.00;;;;;;4932496;29;20197;-45
2022/11/02 06:19:32;;;;;;;10.60;3.07;;;12.50;1.00;;;;;;4932679;29;20197;-46
2022/11/02 06:21:58;;;;;;;11.20;2.40;;;12.50;1.00;;;;;;4931804;29;20190;-45
2022/11/02 06:24:23;;;;;;;10.93;2.20;;;12.50;1.00;;;;;;4928760;29;20661;-46
2022/11/02 06:26:49;;;;;;;11.17;2.53;;;12.60;1.00;;;;;;4929933;29;20555;-45
2022/11/02 06:29:14;;;;;;;15.30;2.57;;;12.60;1.00;;;;;;4932726;29;20194;-45
2022/11/02 06:31:40;;;;;;;10.40;3.00;;;12.60;1.00;;;;;;4933256;29;20240;-46
2022/11/02 06:34:06;;;;;;;12.27;2.60;;;12.60;1.00;;;;;;4932468;29;20190;-48
2022/11/02 06:36:31;;;;;;;14.03;3.40;;;12.60;1.00;;;;;;4932994;29;20179;-45
2022/11/02 06:38:57;;;;;;;10.17;2.63;;;12.60;1.00;;;;;;4934402;29;20905;-46
2022/11/02 06:41:23;;;;;;;11.63;2.60;;;12.60;1.00;;;;;;4932661;29;20252;-44
2022/11/02 06:43:48;;;;;;;7.83;2.20;;;12.60;1.00;;;;;;4931923;29;20198;-46
2022/11/02 06:46:14;;;;;;;10.57;2.63;;;12.50;1.00;;;;;;4931094;29;20205;-45
2022/11/02 06:48:39;;;;;;;13.60;2.30;;;12.50;1.00;;;;;;4928937;29;20246;-46
2022/11/02 06:51:05;;;;;;;14.13;2.80;;;12.40;1.00;;;;;;4934080;29;20229;-45
2022/11/02 06:53:32;;;;;;;9.33;2.30;;;12.40;1.00;;;;;;4932638;29;20194;-46
2022/11/02 06:55:58;;;;;;;11.97;2.47;;;12.40;1.00;;;;;;4931760;29;20492;-45
2022/11/02 06:58:25;;;;;;;6.50;2.37;;;12.40;1.00;;;;;;4934277;29;20533;-46
2022/11/02 07:01:00;;;;;;;14.50;2.93;;;12.30;1.00;;;;;;4932684;29;20554;-46
2022/11/02 07:03:26;;;;;;;18.60;3.87;;;12.40;1.00;;;;;;4929541;29;20529;-46
2022/11/02 07:05:52;;;;;;;16.00;3.33;;;12.40;1.00;;;;;;4933057;29;20446;-45
2022/11/02 07:08:19;;;;;;;11.73;2.77;;;12.40;1.00;;;;;;4929928;29;20464;-45
2022/11/02 07:10:45;;;;;;;11.50;2.63;;;12.40;1.00;;;;;;4933423;29;20441;-45
2022/11/02 07:13:11;;;;;;;15.50;3.33;;;12.40;1.00;;;;;;4930109;29;20446;-45
2022/11/02 07:15:37;;;;;;;13.90;2.70;;;12.40;1.00;;;;;;4928431;29;20485;-45
2022/11/02 07:18:04;;;;;;;9.40;2.53;;;12.40;1.00;;;;;;4932686;29;20473;-47
2022/11/02 07:20:31;;;;;;;16.10;3.07;;;12.50;1.00;;;;;;4932537;29;20210;-46
2022/11/02 07:22:58;;;;;;;9.33;2.70;;;12.50;1.00;;;;;;4931648;29;20451;-45
2022/11/02 07:25:26;;;;;;;7.33;2.47;;;12.50;1.00;;;;;;4928396;29;20564;-45
2022/11/02 07:27:52;;;;;;;16.10;3.03;;;12.60;1.00;;;;;;4929333;29;20478;-45
2022/11/02 07:30:18;;;;;;;13.40;3.07;;;12.60;1.00;;;;;;4929285;29;20495;-45
2022/11/02 07:32:45;;;;;;;8.20;2.10;;;12.60;1.00;;;;;;4932102;29;20476;-46
2022/11/02 07:35:12;;;;;;;9.47;2.30;;;12.70;1.00;;;;;;4926369;29;20852;-45
2022/11/02 07:37:39;;;;;;;9.43;2.17;;;12.70;1.00;;;;;;4930468;29;20450;-47
2022/11/02 07:40:07;;;;;;;12.33;2.07;;;12.70;1.00;;;;;;4931559;29;20446;-45
2022/11/02 07:42:32;;;;;;;8.90;3.37;;;12.70;1.00;;;;;;4928763;29;20501;-45
2022/11/02 07:44:58;;;;;;;9.30;2.37;;;12.70;1.00;;;;;;4932779;29;20446;-45
2022/11/02 07:47:25;;;;;;;13.50;2.67;;;12.70;1.00;;;;;;4932217;29;20352;-45
2022/11/02 07:49:51;;;;;;;13.33;2.30;;;12.80;1.00;;;;;;4931070;29;20273;-46
2022/11/02 07:52:16;;;;;;;7.67;2.30;;;12.90;1.00;;;;;;4932240;29;20548;-46
2022/11/02 07:54:42;;;;;;;9.00;2.40;;;13.00;1.00;;;;;;4931196;29;20218;-45
2022/11/02 07:57:08;;;;;;;5.17;1.97;;;13.10;1.00;;;;;;4928154;29;20193;-45
2022/11/02 07:59:35;;;;;;;9.27;2.90;;;13.20;1.00;;;;;;4934894;29;20218;-46
2022/11/02 08:02:01;;;;;;;17.43;3.30;;;13.20;1.00;;;;;;4935146;29;20170;-46
2022/11/02 08:04:26;;;;;;;12.50;2.47;;;13.20;1.00;;;;;;4933760;29;20453;-46
2022/11/02 08:06:52;;;;;;;19.43;2.87;;;13.10;1.00;;;;;;4930581;29;20458;-46
2022/11/02 08:09:18;;;;;;;8.60;2.20;;;13.10;1.00;;;;;;4927127;29;20199;-46
2022/11/02 08:11:43;;;;;;;8.03;2.37;;;13.30;1.00;;;;;;4930885;29;20227;-46
2022/11/02 08:14:09;;;;;;;5.47;1.93;;;13.30;1.00;;;;;;4931576;29;20207;-46
2022/11/02 08:16:35;;;;;;;10.10;2.50;;;13.40;1.00;;;;;;4934699;29;20186;-46
2022/11/02 08:19:01;;;;;;;11.70;2.53;;;13.50;1.00;;;;;;4934211;29;20194;-45
2022/11/02 08:21:26;;;;;;;9.47;1.87;;;13.40;1.00;;;;;;4932335;29;20194;-45
2022/11/02 08:23:54;;;;;;;8.40;2.40;;;13.50;1.00;;;;;;4932634;29;20225;-46
2022/11/02 08:26:19;;;;;;;10.47;2.17;;;13.40;1.00;;;;;;4931159;29;20195;-45
2022/11/02 08:28:45;;;;;;;6.80;2.40;;;13.50;1.00;;;;;;4920651;29;20856;-45
2022/11/02 08:31:15;;;;;;;9.97;2.50;;;13.40;1.00;;;;;;4928889;29;20269;-46
2022/11/02 08:33:42;;;;;;;6.30;2.00;;;13.40;1.00;;;;;;4930142;29;20302;-45
2022/11/02 08:36:08;;;;;;;10.83;2.73;;;13.50;1.00;;;;;;4929649;29;21385;-47
2022/11/02 08:38:33;;;;;;;11.37;2.23;;;13.50;1.00;;;;;;4930121;29;20453;-45
2022/11/02 08:40:59;;;;;;;9.60;2.50;;;13.50;1.00;;;;;;4929969;29;20453;-45
2022/11/02 08:43:25;;;;;;;9.30;1.93;;;13.50;1.00;;;;;;4927490;29;20276;-46
2022/11/02 08:45:50;;;;;;;15.30;2.30;;;13.70;1.00;;;;;;4931259;29;20735;-46
2022/11/02 08:48:16;;;;;;;11.93;2.20;;;13.80;1.00;;;;;;4930740;29;21863;-46
2022/11/02 08:50:41;;;;;;;33.17;2.20;;;13.90;1.00;;;;;;4932712;29;20210;-45
2022/11/02 08:53:07;;;;;;;10.40;2.00;;;13.90;1.00;;;;;;4930714;29;20202;-46
2022/11/02 08:55:33;;;;;;;17.63;3.30;;;13.90;1.00;;;;;;4932876;29;20610;-46
2022/11/02 08:57:59;;;;;;;10.83;3.27;;;13.90;1.00;;;;;;4930157;29;20195;-45
2022/11/02 09:00:27;;;;;;;8.37;2.43;;;13.80;1.00;;;;;;4932519;29;20844;-45
2022/11/02 09:03:08;;;;;;;7.43;2.20;;;13.70;1.00;;;;;;4932071;29;20490;-46
2022/11/02 09:05:36;;;;;;;6.60;2.30;;;13.80;1.00;;;;;;4929770;29;20537;-45
2022/11/02 09:08:05;;;;;;;6.57;1.77;;;13.80;1.00;;;;;;4927910;29;20451;-46
2022/11/02 09:10:34;;;;;;;11.80;2.43;;;13.70;1.00;;;;;;4928459;29;20438;-45
2022/11/02 09:13:01;;;;;;;8.70;2.60;;;13.70;1.00;;;;;;4930092;29;20545;-48
2022/11/02 09:15:27;;;;;;;7.40;2.40;;;13.60;1.00;;;;;;4929289;29;20482;-45
2022/11/02 09:17:53;;;;;;;10.43;2.33;;;13.50;1.00;;;;;;4928439;29;20458;-45
2022/11/02 09:20:20;;;;;;;6.07;2.03;;;13.60;1.00;;;;;;4932693;29;20453;-46
2022/11/02 09:22:45;;;;;;;14.77;2.30;;;13.60;1.00;;;;;;4934128;29;20244;-47
2022/11/02 09:25:12;;;;;;;7.17;2.73;;;13.60;1.00;;;;;;4929581;29;20455;-47
2022/11/02 09:27:38;;;;;;;10.50;2.40;;;13.60;1.00;;;;;;4924794;29;20195;-44
2022/11/02 09:30:05;;;;;;;12.00;3.00;;;13.60;1.00;;;;;;4931333;29;20445;-47
2022/11/02 09:32:32;;;;;;;7.03;2.37;;;13.60;1.00;;;;;;4929958;29;21190;-45
2022/11/02 09:35:06;;;;;;;8.40;2.27;;;13.60;1.00;;;;;;4931503;29;20470;-46
2022/11/02 09:37:31;;;;;;;17.97;2.23;;;13.60;1.00;;;;;;4931144;29;20828;-44
2022/11/02 09:39:57;;;;;;;8.77;1.97;;;13.50;1.00;;;;;;4931073;29;20450;-44
2022/11/02 09:42:31;;;;;;;8.60;2.10;;;13.60;1.00;;;;;;4933638;29;20182;-45
2022/11/02 09:45:01;;;;;;;9.50;2.30;;;13.50;1.00;;;;;;4932902;29;20197;-45
2022/11/02 09:47:29;;;;;;;12.93;2.83;;;13.50;1.00;;;;;;4933872;29;20849;-44
2022/11/02 09:49:59;;;;;;;22.53;3.10;;;13.50;1.00;;;;;;4931836;29;20541;-45
2022/11/02 09:52:39;;;;;;;11.33;2.83;;;13.50;1.00;;;;;;4933717;29;20426;-45
2022/11/02 09:55:13;;;;;;;6.10;2.40;;;13.50;1.00;;;;;;4931116;29;21047;-46
2022/11/02 09:57:44;;;;;;;9.33;2.27;;;13.50;1.00;;;;;;4930745;29;20449;-45
2022/11/02 10:00:14;;;;;;;9.10;2.50;;;13.50;1.00;;;;;;4933686;29;20407;-46
2022/11/02 10:02:58;;;;;;;13.53;3.17;;;13.50;1.00;;;;;;4931768;29;20449;-45
2022/11/02 10:05:32;;;;;;;6.70;2.27;;;13.50;1.00;;;;;;4931890;29;20447;-46
2022/11/02 10:08:10;;;;;;;10.57;2.30;;;13.50;1.00;;;;;;4929326;29;20473;-45
2022/11/02 10:10:57;;;;;;;13.63;2.23;;;13.50;1.00;;;;;;4929097;29;20458;-46
2022/11/02 10:13:29;;;;;;;6.93;2.13;;;13.50;1.00;;;;;;4927862;29;20450;-46
2022/11/02 10:16:06;;;;;;;9.47;2.70;;;13.40;1.00;;;;;;4926067;29;20481;-46
2022/11/02 10:18:34;;;;;;;18.43;3.40;;;13.10;1.00;;;;;;4929142;29;20909;-47
2022/11/02 10:21:10;;;;;;;9.20;2.37;;;12.90;1.00;;;;;;4929078;29;20453;-47
2022/11/02 10:23:44;;;;;;;6.40;2.10;;;12.60;41.70;;;;;;4927079;29;20516;-47
2022/11/02 10:26:21;;;;;;;5.30;1.80;;;12.30;99.90;;;;;;4933368;29;20426;-47
2022/11/02 10:28:51;;;;;;;5.27;1.70;;;12.00;1.00;;;;;;4929473;29;20449;-47
2022/11/02 10:31:28;;;;;;;6.30;2.07;;;11.60;99.90;;;;;;4933352;29;20941;-46
2022/11/02 10:33:56;;;;;;;12.80;2.50;;;11.40;1.00;;;;;;4928833;29;20445;-46
2022/11/02 10:36:47;;;;;;;10.27;3.33;;;11.40;99.90;;;;;;4930431;29;20976;-46
2022/11/02 10:39:22;;;;;;;5.43;2.70;;;12.10;99.90;;;;;;4923613;29;20992;-46
2022/11/02 10:41:48;;;;;;;4.00;2.37;;;13.80;99.90;;;;;;4930323;29;20450;-47
2022/11/02 10:44:31;;;;;;;6.43;1.80;;;15.10;29.10;;;;;;4932531;29;20490;-46
2022/11/02 10:47:15;;;;;;;12.90;2.50;;;16.80;1.00;;;;;;4914354;29;20439;-43
2022/11/02 10:50:01;;;;;;;7.47;2.10;;;17.70;1.00;;;;;;4930503;29;20468;-45
2022/11/02 10:52:35;;;;;;;7.10;2.40;;;17.30;1.00;;;;;;4932388;29;20805;-45
2022/11/02 10:55:02;;;;;;;10.90;2.40;;;16.40;1.00;;;;;;4928695;29;20498;-44
2022/11/02 10:57:31;;;;;;;8.17;2.70;;;15.70;1.00;;;;;;4920599;29;20429;-44
2022/11/02 11:00:26;;;;;;;11.80;2.20;;;15.30;1.00;;;;;;4936980;29;20756;-44
2022/11/02 11:03:07;;;;;;;8.47;2.60;;;14.70;1.00;;;;;;4929167;29;20443;-45
2022/11/02 11:05:42;;;;;;;11.83;2.60;;;14.00;1.00;;;;;;4921264;29;20442;-47
2022/11/02 11:08:36;;;;;;;5.87;2.27;;;13.70;1.00;;;;;;4933942;29;20472;-46
2022/11/02 11:11:20;;;;;;;8.80;2.40;;;13.40;1.00;;;;;;4936680;29;20415;-47
2022/11/02 11:14:12;;;;;;;10.10;2.20;;;13.30;1.00;;;;;;4935117;29;20457;-46
2022/11/02 11:16:47;;;;;;;11.40;3.10;;;13.20;1.00;;;;;;4936291;29;20410;-47
2022/11/02 11:19:18;;;;;;;8.83;2.17;;;13.20;1.00;;;;;;4936388;29;20522;-45
2022/11/02 11:21:45;;;;;;;11.47;2.50;;;13.20;1.00;;;;;;4936383;29;20425;-46
2022/11/02 11:24:26;;;;;;;7.00;2.00;;;13.00;1.00;;;;;;4933993;29;20437;-46
2022/11/02 11:27:11;;;;;;;6.33;2.13;;;13.00;22.60;;;;;;4934252;29;20438;-46
2022/11/02 11:29:57;;;;;;;5.73;2.23;;;13.00;1.00;;;;;;4936105;29;20394;-46
2022/11/02 11:32:26;;;;;;;7.50;2.00;;;13.10;1.00;;;;;;4934842;29;20456;-47
2022/11/02 11:35:06;;;;;;;8.57;2.40;;;12.90;1.00;;;;;;4933825;29;20815;-46
2022/11/02 11:37:32;;;;;;;11.83;1.87;;;12.80;6.30;;;;;;4935815;29;20426;-46
2022/11/02 11:40:16;;;;;;;6.93;2.10;;;13.30;99.90;;;;;;4929721;29;20942;-46
2022/11/02 11:42:42;;;;;;;11.47;1.70;;;13.90;1.00;;;;;;4935612;29;20485;-46
2022/11/02 11:45:28;;;;;;;4.43;1.43;;;13.80;1.00;;;;;;4935668;29;20742;-47
2022/11/02 11:48:19;;;;;;;9.93;2.10;;;14.30;1.00;;;;;;4935489;29;20478;-46
2022/11/02 11:50:49;;;;;;;4.97;1.40;;;14.40;1.00;;;;;;4934129;29;20453;-46
2022/11/02 11:53:25;;;;;;;10.87;2.00;;;14.00;1.00;;;;;;4935509;29;20441;-46
2022/11/02 11:55:53;;;;;;;7.40;1.80;;;13.60;1.00;;;;;;4935556;29;20457;-46
2022/11/02 11:58:22;;;;;;;6.60;1.83;;;13.30;1.00;;;;;;4933331;29;20450;-46
2022/11/02 12:01:06;;;;;;;8.37;1.80;;;13.10;1.00;;;;;;4922794;29;20532;-44
2022/11/02 12:03:32;;;;;;;3.77;1.40;;;12.90;1.00;;;;;;4935425;29;20410;-46
2022/11/02 12:06:16;;;;;;;10.57;1.43;;;12.70;1.00;;;;;;4935321;29;20514;-47
2022/11/02 12:08:59;;;;;;;8.33;1.87;;;12.50;1.00;;;;;;4935453;29;20437;-47
2022/11/02 12:11:49;;;;;;;3.30;1.40;;;12.50;1.00;;;;;;4931716;29;20473;-47
2022/11/02 12:14:26;;;;;;;6.90;1.83;;;12.40;46.60;;;;;;4920921;29;20452;-47
2022/11/02 12:17:11;;;;;;;7.93;1.80;;;12.30;15.70;;;;;;4928436;29;20437;-47
2022/11/02 12:19:37;;;;;;;6.87;1.50;;;12.10;29.60;;;;;;4934262;29;20510;-47
2022/11/02 12:22:28;;;;;;;5.73;1.60;;;12.30;34.20;;;;;;4931717;29;20529;-45
2022/11/02 12:24:59;;;;;;;5.60;1.70;;;13.70;1.00;;;;;;4935016;29;20182;-45
2022/11/02 12:27:52;;;;;;;6.53;1.87;;;15.10;1.00;;;;;;4928265;29;20497;-46
2022/11/02 12:30:24;;;;;;;8.17;1.70;;;15.10;1.00;;;;;;4916816;29;20438;-46
2022/11/02 12:33:09;;;;;;;7.30;1.50;;;16.50;1.00;;;;;;4925080;29;20951;-45
2022/11/02 12:36:05;;;;;;;3.63;1.30;;;18.00;1.00;;;;;;4934046;29;20478;-44
2022/11/02 12:39:02;;;;;;;6.97;1.50;;;19.60;1.00;;;;;;4925462;29;20423;-46
2022/11/02 12:41:37;;;;;;;4.83;1.33;;;20.70;1.00;;;;;;4925575;29;20442;-45
2022/11/02 12:44:13;;;;;;;4.73;1.63;;;21.00;1.00;;;;;;4918681;29;20482;-45
2022/11/02 12:47:31;;;;;;;2.40;1.10;;;21.50;1.00;;;;;;4922841;29;20473;-45
2022/11/02 12:50:19;;;;;;;4.30;1.37;;;22.10;1.00;;;;;;4927828;29;20462;-45
2022/11/02 12:53:18;;;;;;;5.37;1.40;;;22.70;99.90;;;;;;4933573;29;20438;-46
2022/11/02 12:55:47;;;;;;;3.80;1.50;;;23.00;99.90;;;;;;4928681;29;20545;-46
2022/11/02 12:58:24;;;;;;;7.90;1.80;;;23.50;99.90;;;;;;4934259;29;20731;-46
2022/11/02 13:00:57;;;;;;;4.40;1.60;;;23.40;99.90;;;;;;4934336;29;20465;-45
2022/11/02 13:03:57;;;;;;;7.80;1.67;;;22.30;99.90;;;;;;4934528;29;20901;-44
2022/11/02 13:06:32;;;;;;;5.87;1.90;;;19.60;99.90;;;;;;4934319;29;20414;-45
2022/11/02 13:09:22;;;;;;;10.33;2.53;;;17.60;99.90;;;;;;4934318;29;20414;-44
2022/11/02 13:11:59;;;;;;;7.43;1.53;;;16.30;99.90;;;;;;4933873;29;20423;-44
2022/11/02 13:14:29;;;;;;;7.97;1.60;;;15.30;99.90;;;;;;4934216;29;20422;-45
2022/11/02 13:17:03;;;;;;;10.47;1.30;;;14.60;99.90;;;;;;4934317;29;20464;-45
2022/11/02 13:19:39;;;;;;;8.37;1.83;;;14.20;1.00;;;;;;4933975;29;20401;-45
2022/11/02 13:22:09;;;;;;;4.57;1.37;;;14.00;1.00;;;;;;4934060;29;20956;-45
2022/11/02 13:24:51;;;;;;;9.80;1.83;;;13.70;1.00;;;;;;4934009;29;20449;-45
2022/11/02 13:27:33;;;;;;;3.70;1.50;;;13.50;1.00;;;;;;4934115;29;20886;-46